sensor_id;sensor_type;location;lat;lon;timestamp;pressure;altitude;pressure_sealevel;temperature;humidity
23170;BME280;11753;43.144;24.714;2022-12-29T00:00:45;100667.38;;;4.30;80.88
23170;BME280;11753;43.144;24.714;2022-12-29T00:01:46;100664.44;;;4.36;80.74
23170;BME280;11753;43.144;24.714;2022-12-29T00:02:47;100666.84;;;4.39;80.65
23170;BME280;11753;43.144;24.714;2022-12-29T00:03:48;100670.03;;;4.45;80.45
23170;BME280;11753;43.144;24.714;2022-12-29T00:04:52;100669.84;;;4.48;80.28
23170;BME280;11753;43.144;24.714;2022-12-29T00:05:57;100674.72;;;4.54;80.06
23170;BME280;11753;43.144;24.714;2022-12-29T00:06:59;100678.84;;;4.58;79.54
23170;BME280;11753;43.144;24.714;2022-12-29T00:08:00;100675.19;;;4.60;79.02
23170;BME280;11753;43.144;24.714;2022-12-29T00:09:01;100672.31;;;4.65;78.79
23170;BME280;11753;43.144;24.714;2022-12-29T00:10:02;100679.13;;;4.67;78.64
23170;BME280;11753;43.144;24.714;2022-12-29T00:11:12;100671.88;;;4.73;78.40
23170;BME280;11753;43.144;24.714;2022-12-29T00:12:13;100667.59;;;4.72;77.94
23170;BME280;11753;43.144;24.714;2022-12-29T00:13:13;100681.03;;;4.80;77.62
23170;BME280;11753;43.144;24.714;2022-12-29T00:14:33;100674.56;;;4.85;77.32
23170;BME280;11753;43.144;24.714;2022-12-29T00:15:52;100670.88;;;4.89;76.82
23170;BME280;11753;43.144;24.714;2022-12-29T00:16:54;100674.41;;;4.88;76.75
23170;BME280;11753;43.144;24.714;2022-12-29T00:17:55;100672.53;;;4.90;76.70
23170;BME280;11753;43.144;24.714;2022-12-29T00:18:56;100671.59;;;4.91;76.52
23170;BME280;11753;43.144;24.714;2022-12-29T00:19:57;100680.56;;;5.02;76.08
23170;BME280;11753;43.144;24.714;2022-12-29T00:21:19;100683.34;;;4.98;75.25
23170;BME280;11753;43.144;24.714;2022-12-29T00:22:39;100681.97;;;4.93;75.13
23170;BME280;11753;43.144;24.714;2022-12-29T00:23:58;100689.69;;;4.94;75.25
23170;BME280;11753;43.144;24.714;2022-12-29T00:25:29;100682.50;;;4.98;75.26
23170;BME280;11753;43.144;24.714;2022-12-29T00:26:55;100685.03;;;5.00;75.17
23170;BME280;11753;43.144;24.714;2022-12-29T00:28:15;100694.56;;;5.01;75.11
23170;BME280;11753;43.144;24.714;2022-12-29T00:29:34;100690.81;;;5.05;74.97
23170;BME280;11753;43.144;24.714;2022-12-29T00:30:53;100702.09;;;5.05;74.70
23170;BME280;11753;43.144;24.714;2022-12-29T00:32:12;100695.88;;;5.08;74.58
23170;BME280;11753;43.144;24.714;2022-12-29T00:33:33;100692.31;;;5.09;74.31
23170;BME280;11753;43.144;24.714;2022-12-29T00:34:55;100690.25;;;5.14;74.34
23170;BME280;11753;43.144;24.714;2022-12-29T00:36:36;100678.34;;;5.10;74.01
23170;BME280;11753;43.144;24.714;2022-12-29T00:37:41;100678.91;;;5.01;74.43
23170;BME280;11753;43.144;24.714;2022-12-29T00:39:08;100681.88;;;5.09;74.58
23170;BME280;11753;43.144;24.714;2022-12-29T00:40:29;100678.91;;;5.01;74.60
23170;BME280;11753;43.144;24.714;2022-12-29T00:41:48;100672.38;;;4.93;75.04
23170;BME280;11753;43.144;24.714;2022-12-29T00:43:07;100677.03;;;5.03;75.02
23170;BME280;11753;43.144;24.714;2022-12-29T00:44:27;100672.56;;;5.05;75.00
23170;BME280;11753;43.144;24.714;2022-12-29T00:45:28;100681.22;;;5.05;75.03
23170;BME280;11753;43.144;24.714;2022-12-29T00:46:28;100680.28;;;5.06;74.90
23170;BME280;11753;43.144;24.714;2022-12-29T00:47:29;100682.88;;;5.06;75.08
23170;BME280;11753;43.144;24.714;2022-12-29T00:48:30;100684.41;;;5.10;74.96
23170;BME280;11753;43.144;24.714;2022-12-29T00:50:03;100673.13;;;5.10;75.00
23170;BME280;11753;43.144;24.714;2022-12-29T00:51:04;100680.69;;;5.14;74.93
23170;BME280;11753;43.144;24.714;2022-12-29T00:52:10;100679.81;;;5.14;74.94
23170;BME280;11753;43.144;24.714;2022-12-29T00:53:12;100681.22;;;5.19;74.99
23170;BME280;11753;43.144;24.714;2022-12-29T00:54:16;100682.00;;;5.21;74.34
23170;BME280;11753;43.144;24.714;2022-12-29T00:55:16;100673.75;;;5.13;74.36
23170;BME280;11753;43.144;24.714;2022-12-29T00:56:17;100679.28;;;5.09;74.52
23170;BME280;11753;43.144;24.714;2022-12-29T00:57:18;100684.19;;;5.13;74.55
23170;BME280;11753;43.144;24.714;2022-12-29T00:58:19;100682.91;;;5.20;73.97
23170;BME280;11753;43.144;24.714;2022-12-29T00:59:20;100683.84;;;5.19;72.98
23170;BME280;11753;43.144;24.714;2022-12-29T01:00:21;100686.16;;;5.10;72.92
23170;BME280;11753;43.144;24.714;2022-12-29T01:01:21;100681.41;;;5.02;73.57
23170;BME280;11753;43.144;24.714;2022-12-29T01:02:22;100685.34;;;5.09;73.46
23170;BME280;11753;43.144;24.714;2022-12-29T01:03:23;100691.03;;;5.02;73.40
23170;BME280;11753;43.144;24.714;2022-12-29T01:04:25;100685.91;;;5.00;73.68
23170;BME280;11753;43.144;24.714;2022-12-29T01:05:25;100679.44;;;5.06;73.43
23170;BME280;11753;43.144;24.714;2022-12-29T01:06:26;100682.25;;;5.03;73.52
23170;BME280;11753;43.144;24.714;2022-12-29T01:07:26;100682.06;;;5.06;73.50
23170;BME280;11753;43.144;24.714;2022-12-29T01:08:28;100676.09;;;5.04;73.10
23170;BME280;11753;43.144;24.714;2022-12-29T01:09:29;100680.38;;;5.05;73.11
23170;BME280;11753;43.144;24.714;2022-12-29T01:11:01;100679.53;;;5.04;72.97
23170;BME280;11753;43.144;24.714;2022-12-29T01:12:04;100677.03;;;5.03;73.05
23170;BME280;11753;43.144;24.714;2022-12-29T01:13:05;100679.28;;;5.09;72.79
23170;BME280;11753;43.144;24.714;2022-12-29T01:14:06;100673.13;;;5.10;72.44
23170;BME280;11753;43.144;24.714;2022-12-29T01:15:09;100679.28;;;5.09;71.90
23170;BME280;11753;43.144;24.714;2022-12-29T01:16:11;100676.47;;;5.12;72.06
23170;BME280;11753;43.144;24.714;2022-12-29T01:17:15;100672.28;;;5.09;72.16
23170;BME280;11753;43.144;24.714;2022-12-29T01:18:16;100663.25;;;5.01;72.54
23170;BME280;11753;43.144;24.714;2022-12-29T01:19:17;100671.44;;;5.09;72.27
23170;BME280;11753;43.144;24.714;2022-12-29T01:20:18;100671.34;;;5.10;72.47
23170;BME280;11753;43.144;24.714;2022-12-29T01:21:19;100673.22;;;5.22;72.36
23170;BME280;11753;43.144;24.714;2022-12-29T01:22:20;100665.75;;;5.16;71.78
23170;BME280;11753;43.144;24.714;2022-12-29T01:23:22;100662.47;;;5.13;71.92
23170;BME280;11753;43.144;24.714;2022-12-29T01:24:23;100658.88;;;5.15;72.23
23170;BME280;11753;43.144;24.714;2022-12-29T01:25:24;100659.81;;;5.14;72.42
23170;BME280;11753;43.144;24.714;2022-12-29T01:26:25;100651.50;;;5.22;72.40
23170;BME280;11753;43.144;24.714;2022-12-29T01:27:26;100646.28;;;5.22;72.33
23170;BME280;11753;43.144;24.714;2022-12-29T01:28:30;100645.34;;;5.23;72.19
23170;BME280;11753;43.144;24.714;2022-12-29T01:29:31;100647.56;;;5.29;72.26
23170;BME280;11753;43.144;24.714;2022-12-29T01:30:32;100644.22;;;5.13;72.23
23170;BME280;11753;43.144;24.714;2022-12-29T01:31:33;100645.72;;;5.17;72.35
23170;BME280;11753;43.144;24.714;2022-12-29T01:32:34;100637.88;;;5.17;71.93
23170;BME280;11753;43.144;24.714;2022-12-29T01:33:35;100650.19;;;5.15;72.27
23170;BME280;11753;43.144;24.714;2022-12-29T01:34:36;100646.28;;;5.22;72.16
23170;BME280;11753;43.144;24.714;2022-12-29T01:35:37;100645.50;;;5.20;72.00
23170;BME280;11753;43.144;24.714;2022-12-29T01:36:38;100644.56;;;5.21;72.38
23170;BME280;11753;43.144;24.714;2022-12-29T01:37:39;100638.44;;;5.22;72.16
23170;BME280;11753;43.144;24.714;2022-12-29T01:38:41;100642.72;;;5.23;72.40
23170;BME280;11753;43.144;24.714;2022-12-29T01:39:42;100633.84;;;5.25;72.29
23170;BME280;11753;43.144;24.714;2022-12-29T01:40:46;100633.75;;;5.27;72.35
23170;BME280;11753;43.144;24.714;2022-12-29T01:41:47;100637.88;;;5.31;72.49
23170;BME280;11753;43.144;24.714;2022-12-29T01:42:51;100628.91;;;5.35;72.61
23170;BME280;11753;43.144;24.714;2022-12-29T01:43:54;100618.44;;;5.35;72.52
23170;BME280;11753;43.144;24.714;2022-12-29T01:45:00;100625.38;;;5.36;72.32
23170;BME280;11753;43.144;24.714;2022-12-29T01:46:02;100621.91;;;5.36;72.08
23170;BME280;11753;43.144;24.714;2022-12-29T01:47:03;100619.00;;;5.40;71.89
23170;BME280;11753;43.144;24.714;2022-12-29T01:48:05;100615.00;;;5.35;72.07
23170;BME280;11753;43.144;24.714;2022-12-29T01:50:35;100610.63;;;5.35;72.58
23170;BME280;11753;43.144;24.714;2022-12-29T01:51:46;100609.50;;;5.39;72.17
23170;BME280;11753;43.144;24.714;2022-12-29T01:53:04;100608.47;;;5.42;72.35
23170;BME280;11753;43.144;24.714;2022-12-29T01:54:13;100605.56;;;5.46;72.25
23170;BME280;11753;43.144;24.714;2022-12-29T01:55:14;100606.63;;;5.44;72.26
23170;BME280;11753;43.144;24.714;2022-12-29T01:56:17;100608.91;;;5.48;72.21
23170;BME280;11753;43.144;24.714;2022-12-29T01:57:24;100601.28;;;5.45;72.35
23170;BME280;11753;43.144;24.714;2022-12-29T01:58:30;100600.06;;;5.51;72.06
23170;BME280;11753;43.144;24.714;2022-12-29T01:59:34;100600.06;;;5.51;72.28
23170;BME280;11753;43.144;24.714;2022-12-29T02:00:37;100596.63;;;5.50;72.26
23170;BME280;11753;43.144;24.714;2022-12-29T02:01:38;100600.13;;;5.49;72.29
23170;BME280;11753;43.144;24.714;2022-12-29T02:02:42;100597.53;;;5.49;72.50
23170;BME280;11753;43.144;24.714;2022-12-29T02:03:45;100597.84;;;5.45;72.89
23170;BME280;11753;43.144;24.714;2022-12-29T02:04:47;100599.41;;;5.47;72.74
23170;BME280;11753;43.144;24.714;2022-12-29T02:06:20;100593.81;;;5.53;72.48
23170;BME280;11753;43.144;24.714;2022-12-29T02:07:24;100593.06;;;5.51;72.56
23170;BME280;11753;43.144;24.714;2022-12-29T02:08:28;100598.28;;;5.51;72.55
23170;BME280;11753;43.144;24.714;2022-12-29T02:09:29;100598.38;;;5.50;72.73
23170;BME280;11753;43.144;24.714;2022-12-29T02:10:32;100593.06;;;5.51;72.57
23170;BME280;11753;43.144;24.714;2022-12-29T02:11:35;100594.00;;;5.50;72.66
23170;BME280;11753;43.144;24.714;2022-12-29T02:12:37;100590.34;;;5.53;72.68
23170;BME280;11753;43.144;24.714;2022-12-29T02:13:37;100588.38;;;5.57;72.58
23170;BME280;11753;43.144;24.714;2022-12-29T02:14:38;100589.13;;;5.59;72.30
23170;BME280;11753;43.144;24.714;2022-12-29T02:17:25;100587.97;;;5.63;71.89
23170;BME280;11753;43.144;24.714;2022-12-29T02:18:52;100587.00;;;5.51;72.20
23170;BME280;11753;43.144;24.714;2022-12-29T02:30:46;100581.03;;;5.49;72.47
23170;BME280;11753;43.144;24.714;2022-12-29T02:36:19;100572.34;;;5.48;72.66
23170;BME280;11753;43.144;24.714;2022-12-29T02:39:34;100566.75;;;5.55;72.94
23170;BME280;11753;43.144;24.714;2022-12-29T02:41:09;100572.06;;;5.53;73.14
23170;BME280;11753;43.144;24.714;2022-12-29T02:43:56;100565.34;;;5.49;73.01
23170;BME280;11753;43.144;24.714;2022-12-29T02:45:08;100560.34;;;5.46;73.53
23170;BME280;11753;43.144;24.714;2022-12-29T02:49:15;100557.91;;;5.43;73.77
23170;BME280;11753;43.144;24.714;2022-12-29T02:51:20;100553.00;;;5.38;73.80
23170;BME280;11753;43.144;24.714;2022-12-29T02:52:52;100563.44;;;5.38;73.87
23170;BME280;11753;43.144;24.714;2022-12-29T02:53:56;100561.00;;;5.35;74.02
23170;BME280;11753;43.144;24.714;2022-12-29T02:55:16;100553.75;;;5.26;74.35
23170;BME280;11753;43.144;24.714;2022-12-29T02:56:17;100553.03;;;5.24;74.43
23170;BME280;11753;43.144;24.714;2022-12-29T02:58:23;100556.03;;;5.18;74.88
23170;BME280;11753;43.144;24.714;2022-12-29T02:59:24;100548.75;;;5.23;74.77
23170;BME280;11753;43.144;24.714;2022-12-29T03:00:26;100553.41;;;5.18;74.92
23170;BME280;11753;43.144;24.714;2022-12-29T03:09:11;100546.53;;;5.03;75.55
23170;BME280;11753;43.144;24.714;2022-12-29T03:10:28;100530.16;;;5.01;75.74
23170;BME280;11753;43.144;24.714;2022-12-29T03:11:37;100544.50;;;4.93;76.07
23170;BME280;11753;43.144;24.714;2022-12-29T03:14:52;100547.28;;;4.90;76.26
23170;BME280;11753;43.144;24.714;2022-12-29T03:17:28;100540.22;;;4.78;76.91
23170;BME280;11753;43.144;24.714;2022-12-29T03:18:38;100538.00;;;4.72;77.25
23170;BME280;11753;43.144;24.714;2022-12-29T03:19:46;100541.97;;;4.78;77.34
23170;BME280;11753;43.144;24.714;2022-12-29T03:20:52;100536.28;;;4.71;77.59
23170;BME280;11753;43.144;24.714;2022-12-29T03:22:02;100534.63;;;4.70;77.43
23170;BME280;11753;43.144;24.714;2022-12-29T03:23:23;100538.38;;;4.66;77.59
23170;BME280;11753;43.144;24.714;2022-12-29T03:24:34;100535.94;;;4.63;77.84
23170;BME280;11753;43.144;24.714;2022-12-29T03:25:42;100537.34;;;4.68;77.78
23170;BME280;11753;43.144;24.714;2022-12-29T03:26:46;100537.53;;;4.65;78.05
23170;BME280;11753;43.144;24.714;2022-12-29T03:27:51;100530.06;;;4.59;78.45
23170;BME280;11753;43.144;24.714;2022-12-29T03:28:54;100548.88;;;4.50;79.14
23170;BME280;11753;43.144;24.714;2022-12-29T03:30:01;100543.38;;;4.55;79.02
23170;BME280;11753;43.144;24.714;2022-12-29T03:31:04;100533.78;;;4.69;78.46
23170;BME280;11753;43.144;24.714;2022-12-29T03:32:08;100534.81;;;4.67;78.57
23170;BME280;11753;43.144;24.714;2022-12-29T03:33:12;100542.63;;;4.53;78.80
23170;BME280;11753;43.144;24.714;2022-12-29T03:34:16;100547.09;;;4.36;79.51
23170;BME280;11753;43.144;24.714;2022-12-29T03:35:21;100536.09;;;4.31;80.11
23170;BME280;11753;43.144;24.714;2022-12-29T03:36:29;100545.31;;;4.23;80.35
23170;BME280;11753;43.144;24.714;2022-12-29T03:37:45;100547.44;;;4.16;80.90
23170;BME280;11753;43.144;24.714;2022-12-29T03:39:20;100546.97;;;4.24;80.60
23170;BME280;11753;43.144;24.714;2022-12-29T03:40:23;100544.63;;;4.19;80.94
23170;BME280;11753;43.144;24.714;2022-12-29T03:41:30;100541.19;;;4.19;80.81
23170;BME280;11753;43.144;24.714;2022-12-29T03:42:33;100555.59;;;4.10;81.23
23170;BME280;11753;43.144;24.714;2022-12-29T03:43:36;100555.59;;;4.10;81.61
23170;BME280;11753;43.144;24.714;2022-12-29T03:44:40;100556.25;;;4.13;81.55
23170;BME280;11753;43.144;24.714;2022-12-29T03:45:41;100567.34;;;4.17;81.45
23170;BME280;11753;43.144;24.714;2022-12-29T03:46:42;100562.50;;;4.11;81.50
23170;BME280;11753;43.144;24.714;2022-12-29T03:47:43;100558.38;;;4.07;81.73
23170;BME280;11753;43.144;24.714;2022-12-29T03:48:44;100562.00;;;4.04;81.81
23170;BME280;11753;43.144;24.714;2022-12-29T03:49:45;100563.53;;;4.08;81.82
23170;BME280;11753;43.144;24.714;2022-12-29T03:50:47;100568.25;;;4.02;82.02
23170;BME280;11753;43.144;24.714;2022-12-29T03:51:48;100557.69;;;3.89;81.96
23170;BME280;11753;43.144;24.714;2022-12-29T03:52:49;100564.47;;;3.92;82.36
23170;BME280;11753;43.144;24.714;2022-12-29T03:53:49;100561.03;;;3.91;82.59
23170;BME280;11753;43.144;24.714;2022-12-29T03:54:51;100563.38;;;3.96;82.27
23170;BME280;11753;43.144;24.714;2022-12-29T03:55:52;100559.84;;;3.97;82.47
23170;BME280;11753;43.144;24.714;2022-12-29T03:56:53;100563.19;;;3.99;82.43
23170;BME280;11753;43.144;24.714;2022-12-29T03:57:54;100563.69;;;4.05;81.74
23170;BME280;11753;43.144;24.714;2022-12-29T03:58:55;100569.91;;;4.03;81.97
23170;BME280;11753;43.144;24.714;2022-12-29T03:59:56;100568.25;;;4.02;81.93
23170;BME280;11753;43.144;24.714;2022-12-29T04:00:57;100566.72;;;3.68;82.89
23170;BME280;11753;43.144;24.714;2022-12-29T04:01:58;100565.47;;;3.59;83.61
23170;BME280;11753;43.144;24.714;2022-12-29T04:02:59;100567.06;;;3.62;83.91
23170;BME280;11753;43.144;24.714;2022-12-29T04:04:00;100569.75;;;3.60;84.08
23170;BME280;11753;43.144;24.714;2022-12-29T04:05:00;100569.00;;;3.58;84.33
23170;BME280;11753;43.144;24.714;2022-12-29T04:06:02;100574.22;;;3.58;84.37
23170;BME280;11753;43.144;24.714;2022-12-29T04:07:03;100572.25;;;3.62;84.08
23170;BME280;11753;43.144;24.714;2022-12-29T04:08:04;100574.03;;;3.61;84.25
23170;BME280;11753;43.144;24.714;2022-12-29T04:09:05;100573.38;;;3.57;84.34
23170;BME280;11753;43.144;24.714;2022-12-29T04:10:06;100574.78;;;3.63;83.97
23170;BME280;11753;43.144;24.714;2022-12-29T04:11:07;100571.53;;;3.59;84.34
23170;BME280;11753;43.144;24.714;2022-12-29T04:12:09;100574.22;;;3.58;84.66
23170;BME280;11753;43.144;24.714;2022-12-29T04:13:10;100579.97;;;3.63;84.55
23170;BME280;11753;43.144;24.714;2022-12-29T04:14:11;100579.44;;;3.58;84.34
23170;BME280;11753;43.144;24.714;2022-12-29T04:15:12;100579.06;;;3.64;84.59
23170;BME280;11753;43.144;24.714;2022-12-29T04:16:13;100575.88;;;3.59;84.43
23170;BME280;11753;43.144;24.714;2022-12-29T04:17:14;100580.56;;;3.68;83.87
23170;BME280;11753;43.144;24.714;2022-12-29T04:18:15;100577.72;;;3.57;83.49
23170;BME280;11753;43.144;24.714;2022-12-29T04:19:16;100574.56;;;3.36;83.37
23170;BME280;11753;43.144;24.714;2022-12-29T04:20:17;100576.25;;;2.72;86.88
23170;BME280;11753;43.144;24.714;2022-12-29T04:21:37;100577.84;;;2.91;86.61
23170;BME280;11753;43.144;24.714;2022-12-29T04:22:38;100564.72;;;2.94;86.73
23170;BME280;11753;43.144;24.714;2022-12-29T04:23:39;100573.88;;;3.01;86.67
23170;BME280;11753;43.144;24.714;2022-12-29T04:24:40;100567.75;;;3.02;86.42
23170;BME280;11753;43.144;24.714;2022-12-29T04:25:45;100564.63;;;3.11;86.16
23170;BME280;11753;43.144;24.714;2022-12-29T04:26:47;100570.25;;;3.19;85.91
23170;BME280;11753;43.144;24.714;2022-12-29T04:27:48;100571.00;;;3.21;85.82
23170;BME280;11753;43.144;24.714;2022-12-29T04:28:49;100569.31;;;3.20;85.81
23170;BME280;11753;43.144;24.714;2022-12-29T04:29:49;100577.22;;;3.35;85.51
23170;BME280;11753;43.144;24.714;2022-12-29T04:30:50;100570.69;;;3.27;85.17
23170;BME280;11753;43.144;24.714;2022-12-29T04:31:50;100574.22;;;3.26;85.31
23170;BME280;11753;43.144;24.714;2022-12-29T04:32:51;100580.00;;;3.31;85.19
23170;BME280;11753;43.144;24.714;2022-12-29T04:33:51;100572.19;;;3.31;84.85
23170;BME280;11753;43.144;24.714;2022-12-29T04:34:52;100583.78;;;3.26;85.07
23170;BME280;11753;43.144;24.714;2022-12-29T04:35:53;100578.44;;;3.29;84.92
23170;BME280;11753;43.144;24.714;2022-12-29T04:36:54;100580.94;;;3.30;84.93
23170;BME280;11753;43.144;24.714;2022-12-29T04:37:54;100578.25;;;3.32;85.00
23170;BME280;11753;43.144;24.714;2022-12-29T04:38:56;100581.09;;;3.27;84.77
23170;BME280;11753;43.144;24.714;2022-12-29T04:39:57;100578.34;;;3.30;84.60
23170;BME280;11753;43.144;24.714;2022-12-29T04:41:00;100580.94;;;3.30;84.61
23170;BME280;11753;43.144;24.714;2022-12-29T04:42:01;100582.44;;;3.35;84.26
23170;BME280;11753;43.144;24.714;2022-12-29T04:43:02;100580.94;;;3.30;84.13
23170;BME280;11753;43.144;24.714;2022-12-29T04:44:03;100577.00;;;3.23;83.94
23170;BME280;11753;43.144;24.714;2022-12-29T04:45:04;100582.00;;;3.26;83.58
23170;BME280;11753;43.144;24.714;2022-12-29T04:46:05;100578.56;;;3.10;84.14
23170;BME280;11753;43.144;24.714;2022-12-29T04:47:05;100585.44;;;3.11;84.53
23170;BME280;11753;43.144;24.714;2022-12-29T04:48:06;100584.53;;;3.12;84.46
23170;BME280;11753;43.144;24.714;2022-12-29T04:49:06;100580.25;;;3.11;84.71
23170;BME280;11753;43.144;24.714;2022-12-29T04:50:09;100584.28;;;3.01;85.30
23170;BME280;11753;43.144;24.714;2022-12-29T04:51:10;100581.31;;;3.07;85.23
23170;BME280;11753;43.144;24.714;2022-12-29T04:52:13;100587.78;;;3.00;85.58
23170;BME280;11753;43.144;24.714;2022-12-29T04:53:15;100579.91;;;3.01;85.82
23170;BME280;11753;43.144;24.714;2022-12-29T04:54:17;100588.88;;;2.96;85.89
23170;BME280;11753;43.144;24.714;2022-12-29T04:55:17;100586.28;;;2.96;85.87
23170;BME280;11753;43.144;24.714;2022-12-29T04:56:18;100591.63;;;2.93;86.39
23170;BME280;11753;43.144;24.714;2022-12-29T04:57:19;100595.66;;;2.98;86.08
23170;BME280;11753;43.144;24.714;2022-12-29T04:58:20;100593.91;;;2.99;86.12
23170;BME280;11753;43.144;24.714;2022-12-29T04:59:21;100597.34;;;2.99;86.00
23170;BME280;11753;43.144;24.714;2022-12-29T05:00:21;100592.97;;;3.00;85.79
23170;BME280;11753;43.144;24.714;2022-12-29T05:01:22;100596.44;;;3.00;85.89
23170;BME280;11753;43.144;24.714;2022-12-29T05:02:23;100594.69;;;3.01;85.76
23170;BME280;11753;43.144;24.714;2022-12-29T05:03:23;100601.97;;;2.94;85.70
23170;BME280;11753;43.144;24.714;2022-12-29T05:04:24;100598.34;;;2.97;85.53
23170;BME280;11753;43.144;24.714;2022-12-29T05:05:25;100597.44;;;2.98;85.61
23170;BME280;11753;43.144;24.714;2022-12-29T05:06:25;100599.09;;;2.99;85.49
23170;BME280;11753;43.144;24.714;2022-12-29T05:07:26;100592.91;;;3.01;85.43
23170;BME280;11753;43.144;24.714;2022-12-29T05:08:27;100590.97;;;3.05;85.24
23170;BME280;11753;43.144;24.714;2022-12-29T05:09:28;100588.28;;;3.07;85.20
23170;BME280;11753;43.144;24.714;2022-12-29T05:10:30;100594.50;;;3.04;85.18
23170;BME280;11753;43.144;24.714;2022-12-29T05:11:30;100598.69;;;3.07;85.35
23170;BME280;11753;43.144;24.714;2022-12-29T05:12:32;100596.03;;;3.08;84.99
23170;BME280;11753;43.144;24.714;2022-12-29T05:13:33;100590.97;;;3.05;85.15
23170;BME280;11753;43.144;24.714;2022-12-29T05:14:33;100593.56;;;3.05;85.04
23170;BME280;11753;43.144;24.714;2022-12-29T05:15:34;100598.78;;;3.05;85.09
23170;BME280;11753;43.144;24.714;2022-12-29T05:16:35;100595.09;;;3.09;84.89
23170;BME280;11753;43.144;24.714;2022-12-29T05:19:17;100598.19;;;3.00;85.22
23170;BME280;11753;43.144;24.714;2022-12-29T05:20:18;100599.38;;;2.94;85.52
23170;BME280;11753;43.144;24.714;2022-12-29T05:21:19;100596.59;;;2.97;85.58
23170;BME280;11753;43.144;24.714;2022-12-29T05:22:21;100599.09;;;2.99;85.26
23170;BME280;11753;43.144;24.714;2022-12-29T05:23:22;100598.97;;;3.02;85.19
23170;BME280;11753;43.144;24.714;2022-12-29T05:24:23;100598.25;;;2.98;85.10
23170;BME280;11753;43.144;24.714;2022-12-29T05:25:24;100601.56;;;3.02;84.87
23170;BME280;11753;43.144;24.714;2022-12-29T05:26:25;100594.41;;;3.06;84.84
23170;BME280;11753;43.144;24.714;2022-12-29T05:27:26;100593.56;;;3.05;84.81
23170;BME280;11753;43.144;24.714;2022-12-29T05:28:26;100599.88;;;3.01;84.95
23170;BME280;11753;43.144;24.714;2022-12-29T05:29:27;100594.69;;;3.01;84.73
23170;BME280;11753;43.144;24.714;2022-12-29T05:30:28;100592.22;;;2.98;84.87
23170;BME280;11753;43.144;24.714;2022-12-29T05:31:29;100594.06;;;2.96;84.66
23170;BME280;11753;43.144;24.714;2022-12-29T05:32:34;100604.78;;;2.90;85.11
23170;BME280;11753;43.144;24.714;2022-12-29T05:33:35;100603.22;;;2.87;85.07
23170;BME280;11753;43.144;24.714;2022-12-29T05:34:36;100603.13;;;2.89;85.03
23170;BME280;11753;43.144;24.714;2022-12-29T05:35:37;100594.22;;;2.93;85.02
23170;BME280;11753;43.144;24.714;2022-12-29T05:36:38;100596.81;;;2.93;84.69
23170;BME280;11753;43.144;24.714;2022-12-29T05:37:39;100601.34;;;2.89;84.81
23170;BME280;11753;43.144;24.714;2022-12-29T05:38:40;100600.53;;;2.89;84.70
23170;BME280;11753;43.144;24.714;2022-12-29T05:39:41;100597.63;;;2.78;84.83
23170;BME280;11753;43.144;24.714;2022-12-29T05:40:43;100609.56;;;2.82;84.99
23170;BME280;11753;43.144;24.714;2022-12-29T05:41:44;100607.88;;;2.81;84.89
23170;BME280;11753;43.144;24.714;2022-12-29T05:42:45;100606.03;;;2.83;84.93
23170;BME280;11753;43.144;24.714;2022-12-29T05:43:46;100606.13;;;2.81;85.12
23170;BME280;11753;43.144;24.714;2022-12-29T05:44:47;100607.63;;;2.85;84.96
23170;BME280;11753;43.144;24.714;2022-12-29T05:45:51;100604.72;;;2.91;84.84
23170;BME280;11753;43.144;24.714;2022-12-29T05:46:53;100614.13;;;2.94;84.79
23170;BME280;11753;43.144;24.714;2022-12-29T05:47:54;100605.72;;;2.89;84.81
23170;BME280;11753;43.144;24.714;2022-12-29T05:48:55;100611.53;;;2.94;84.88
23170;BME280;11753;43.144;24.714;2022-12-29T05:49:56;100617.63;;;2.93;84.99
23170;BME280;11753;43.144;24.714;2022-12-29T05:50:57;100608.31;;;2.89;84.90
23170;BME280;11753;43.144;24.714;2022-12-29T05:53:47;100610.22;;;2.85;85.47
23170;BME280;11753;43.144;24.714;2022-12-29T05:54:48;100607.72;;;2.84;85.63
23170;BME280;11753;43.144;24.714;2022-12-29T05:55:49;100618.28;;;2.81;85.81
23170;BME280;11753;43.144;24.714;2022-12-29T05:56:50;100616.13;;;2.89;85.77
23170;BME280;11753;43.144;24.714;2022-12-29T05:57:51;100610.94;;;2.89;85.92
23170;BME280;11753;43.144;24.714;2022-12-29T05:58:52;100618.56;;;2.92;85.83
23170;BME280;11753;43.144;24.714;2022-12-29T05:59:53;100617.63;;;2.93;85.78
23170;BME280;11753;43.144;24.714;2022-12-29T06:00:54;100618.50;;;2.93;85.67
23170;BME280;11753;43.144;24.714;2022-12-29T06:01:55;100624.53;;;2.94;85.73
23170;BME280;11753;43.144;24.714;2022-12-29T06:02:56;100622.69;;;2.96;85.74
23170;BME280;11753;43.144;24.714;2022-12-29T06:03:57;100620.84;;;2.98;85.64
23170;BME280;11753;43.144;24.714;2022-12-29T06:04:58;100631.09;;;3.01;85.63
23170;BME280;11753;43.144;24.714;2022-12-29T06:05:59;100627.72;;;2.99;85.79
23170;BME280;11753;43.144;24.714;2022-12-29T06:07:00;100625.91;;;3.01;85.58
23170;BME280;11753;43.144;24.714;2022-12-29T06:08:01;100637.88;;;3.03;85.53
23170;BME280;11753;43.144;24.714;2022-12-29T06:09:02;100630.00;;;3.05;85.44
23170;BME280;11753;43.144;24.714;2022-12-29T06:10:07;100630.94;;;3.04;85.56
23170;BME280;11753;43.144;24.714;2022-12-29T06:11:08;100624.56;;;3.10;85.47
23170;BME280;11753;43.144;24.714;2022-12-29T06:12:09;100631.75;;;3.04;85.30
23170;BME280;11753;43.144;24.714;2022-12-29T06:13:10;100629.91;;;3.07;85.31
23170;BME280;11753;43.144;24.714;2022-12-29T06:14:11;100635.38;;;3.02;85.51
23170;BME280;11753;43.144;24.714;2022-12-29T06:15:12;100642.88;;;3.08;85.52
23170;BME280;11753;43.144;24.714;2022-12-29T06:16:13;100640.25;;;3.08;85.62
23170;BME280;11753;43.144;24.714;2022-12-29T06:17:14;100644.22;;;3.15;85.18
23170;BME280;11753;43.144;24.714;2022-12-29T06:18:16;100645.91;;;3.16;85.25